Tenterden, United Kingdom
Current Conditions -  °F | °C
As of 6:50 AM on Monday 24 Nov 2014 (Local Time) from EGKB Reporting Station
Clear Clear  
Wind Chill:   Ceiling: Unl
Heat Index:   Visibility: 6mi
Dew Point:   Wind: 5mph
Humidity: 87%   Direction: 200°SSW
Pressure: 30.27"   Gusts: NA
Location:  51.07°N, 0.69°E
Report Text: EGKB 240650Z 20004KT 190V290 CAVOK 03/01 Q1025
Loading
Personal Weather Stations






























Interactive Weather Map New forecast layout! Learn more

10-Day Weather Forecast

Advertisements
Track Severe Weather on mobile